Time;durP1;ratioP1;P1;durP2;ratioP2;P2;SDS_P1;SDS_P2;PMS_P1;PMS_P2;Temp;Humidity;BMP_temperature;BMP_pressure;BME280_temperature;BME280_humidity;BME280_pressure;Samples;Min_cycle;Max_cycle;Signal;HPM_P1;HPM_P2
2021/12/30 00:00:59;;;;;;;4.85;3.95;;;;;;;9.05;86.81;100166.16;4996248;28;20061;-77
2021/12/30 00:03:25;;;;;;;3.83;3.42;;;;;;;9.00;86.21;100163.00;4995853;28;20045;-77
2021/12/30 00:05:52;;;;;;;4.47;3.60;;;;;;;9.03;86.14;100165.41;4995818;28;20034;-76
2021/12/30 00:08:18;;;;;;;3.92;2.88;;;;;;;9.01;86.22;100172.75;4996159;28;20464;-78
2021/12/30 00:10:44;;;;;;;5.75;3.65;;;;;;;8.90;86.44;100162.06;4995867;28;20065;-77
2021/12/30 00:13:10;;;;;;;8.65;5.63;;;;;;;8.80;86.98;100179.88;4996190;28;20084;-77
2021/12/30 00:15:35;;;;;;;6.47;4.57;;;;;;;8.86;87.05;100182.06;4996639;28;20105;-79
2021/12/30 00:18:02;;;;;;;6.15;4.53;;;;;;;8.82;86.89;100177.91;4995903;28;20109;-77
2021/12/30 00:20:28;;;;;;;4.18;3.58;;;;;;;8.75;86.06;100177.53;4996142;28;20381;-79
2021/12/30 00:22:53;;;;;;;3.60;3.05;;;;;;;8.73;85.97;100179.50;4995449;28;20034;-78
2021/12/30 00:25:19;;;;;;;4.05;2.97;;;;;;;8.60;84.64;100179.63;4995352;28;20026;-77
2021/12/30 00:27:44;;;;;;;5.15;3.45;;;;;;;8.63;84.24;100182.06;4998467;28;20038;-76
2021/12/30 00:30:12;;;;;;;4.25;3.13;;;;;;;8.56;84.62;100188.88;5002324;28;20022;-77
2021/12/30 00:32:38;;;;;;;3.15;2.80;;;;;;;8.45;84.18;100180.00;4995189;28;20114;-77
2021/12/30 00:35:04;;;;;;;3.03;2.67;;;;;;;8.47;84.47;100189.63;4995339;28;20085;-77
2021/12/30 00:37:29;;;;;;;3.53;2.90;;;;;;;8.44;84.31;100197.09;4995207;28;20046;-76
2021/12/30 00:39:55;;;;;;;2.90;2.42;;;;;;;8.45;84.84;100202.31;4994875;28;20535;-76
2021/12/30 00:42:20;;;;;;;3.00;2.17;;;;;;;8.39;83.76;100199.25;4995010;28;20146;-77
2021/12/30 00:44:46;;;;;;;8.02;2.33;;;;;;;8.38;84.47;100201.06;4995170;28;20026;-77
2021/12/30 00:47:11;;;;;;;3.30;2.22;;;;;;;8.38;84.31;100202.94;4994873;28;20473;-78
2021/12/30 00:49:37;;;;;;;2.45;2.25;;;;;;;8.31;84.61;100210.59;4994797;28;20493;-77
2021/12/30 00:52:03;;;;;;;2.35;1.88;;;;;;;8.31;85.06;100212.41;4977282;28;20026;-75
2021/12/30 00:54:29;;;;;;;5.47;2.42;;;;;;;8.16;84.92;100211.75;4994848;28;20551;-76
2021/12/30 00:56:55;;;;;;;2.35;2.00;;;;;;;7.88;83.92;100209.50;4994617;28;20097;-75
2021/12/30 00:59:20;;;;;;;2.42;2.20;;;;;;;7.89;83.50;100214.72;4994711;28;20036;-75
2021/12/30 01:01:46;;;;;;;3.05;2.17;;;;;;;7.89;83.70;100213.91;4994742;28;20030;-76
2021/12/30 01:04:11;;;;;;;2.65;2.08;;;;;;;7.92;84.39;100217.16;4994587;28;20030;-75
2021/12/30 01:06:37;;;;;;;2.90;2.10;;;;;;;7.90;84.28;100221.81;4994673;28;20037;-76
2021/12/30 01:09:04;;;;;;;1.90;1.63;;;;;;;7.84;84.96;100218.72;4994533;28;20026;-77
2021/12/30 01:11:30;;;;;;;2.55;1.92;;;;;;;7.82;84.62;100223.38;4994672;28;20037;-77
2021/12/30 01:14:17;;;;;;;2.75;2.20;;;;;;;7.75;85.11;100222.97;4994421;28;20027;-77
2021/12/30 01:16:45;;;;;;;2.10;1.88;;;;;;;7.64;85.39;100217.59;4994230;28;20113;-76
2021/12/30 01:21:47;;;;;;;2.88;2.33;;;;;;;7.63;86.27;100230.13;4993983;28;20399;-76
2021/12/30 01:24:12;;;;;;;3.30;2.42;;;;;;;7.49;85.47;100216.06;4994091;28;20446;-76
2021/12/30 01:26:38;;;;;;;2.17;1.98;;;;;;;7.46;84.47;100232.38;4993952;28;20049;-74
2021/12/30 01:29:04;;;;;;;2.70;1.90;;;;;;;7.53;84.40;100221.06;4986151;28;20050;-75
2021/12/30 01:31:29;;;;;;;2.45;2.25;;;;;;;7.40;85.07;100216.78;4983819;28;20104;-74
2021/12/30 01:33:55;;;;;;;2.40;2.10;;;;;;;7.46;84.86;100227.00;4993088;28;20026;-75
2021/12/30 01:36:21;;;;;;;3.28;2.10;;;;;;;7.48;85.35;100228.59;4988227;28;20117;-75
2021/12/30 01:38:48;;;;;;;2.80;1.83;;;;;;;7.46;85.82;100230.50;4984378;28;20113;-76
2021/12/30 01:41:15;;;;;;;4.03;2.58;;;;;;;7.50;86.08;100228.47;4994415;28;20026;-75
2021/12/30 01:43:41;;;;;;;16.38;3.53;;;;;;;7.47;86.51;100226.88;4993936;28;20049;-76
2021/12/30 01:46:08;;;;;;;2.97;2.45;;;;;;;7.48;85.65;100230.41;4976719;28;20030;-75
2021/12/30 01:48:34;;;;;;;5.78;1.85;;;;;;;7.41;85.50;100224.66;4993624;28;20047;-75
2021/12/30 01:51:00;;;;;;;2.20;2.00;;;;;;;7.39;84.22;100244.47;4979714;28;20065;-76
2021/12/30 01:53:26;;;;;;;1.80;1.60;;;;;;;7.40;84.12;100238.16;4992878;28;20054;-76
2021/12/30 01:55:52;;;;;;;3.25;2.33;;;;;;;7.42;84.79;100244.25;4993555;28;20077;-77
2021/12/30 01:58:18;;;;;;;3.63;2.72;;;;;;;7.47;84.05;100237.56;4993215;28;20026;-75
2021/12/30 02:00:46;;;;;;;9.98;5.20;;;;;;;7.48;83.88;100241.97;4977525;28;20031;-76
2021/12/30 02:03:12;;;;;;;3.65;2.78;;;;;;;7.44;83.33;100245.84;4974332;28;20052;-75
2021/12/30 02:05:39;;;;;;;3.67;2.20;;;;;;;7.38;83.60;100240.09;4982550;28;20030;-75
2021/12/30 02:08:12;;;;;;;1.90;1.70;;;;;;;7.24;82.56;100249.16;5004017;28;20029;-75
2021/12/30 02:10:40;;;;;;;2.40;2.03;;;;;;;7.24;82.74;100249.16;4993506;28;20030;-76
2021/12/30 02:13:06;;;;;;;3.58;2.33;;;;;;;7.20;82.55;100252.16;4975895;28;20022;-76
2021/12/30 02:15:32;;;;;;;2.88;1.95;;;;;;;7.12;83.31;100253.53;4993727;28;20029;-76
2021/12/30 02:17:59;;;;;;;2.40;1.95;;;;;;;7.04;82.81;100239.03;4993582;28;20023;-75
2021/12/30 02:21:01;;;;;;;2.17;1.92;;;;;;;7.05;83.16;100251.44;4993497;28;20037;-75
2021/12/30 02:23:32;;;;;;;2.65;1.85;;;;;;;6.92;82.67;100248.81;4914545;29;20099;-77
2021/12/30 02:26:19;;;;;;;2.75;1.88;;;;;;;6.79;82.64;100247.97;4971829;28;20061;-75
2021/12/30 02:28:45;;;;;;;2.13;1.92;;;;;;;6.78;82.71;100232.06;4973653;28;20086;-75
2021/12/30 02:31:14;;;;;;;2.80;2.30;;;;;;;6.77;83.38;100244.56;4973658;28;20185;-75
2021/12/30 02:33:40;;;;;;;2.10;1.88;;;;;;;6.83;83.83;100248.63;4990423;28;20030;-76
2021/12/30 02:36:06;;;;;;;4.43;3.13;;;;;;;6.87;84.81;100250.97;4993523;28;20022;-76
2021/12/30 02:38:32;;;;;;;1.95;1.60;;;;;;;6.82;84.75;100242.41;4993481;28;20030;-76
2021/12/30 02:41:00;;;;;;;4.57;2.47;;;;;;;6.64;83.77;100258.91;4990663;28;20038;-77
2021/12/30 02:43:29;;;;;;;3.20;2.15;;;;;;;6.64;83.75;100266.91;4992990;28;20483;-77
2021/12/30 02:45:57;;;;;;;2.60;2.20;;;;;;;6.68;83.88;100265.75;4992974;28;20027;-76
2021/12/30 02:48:26;;;;;;;2.95;2.17;;;;;;;6.73;84.03;100259.09;4992848;28;20385;-77
2021/12/30 02:50:56;;;;;;;2.63;2.30;;;;;;;6.68;83.64;100255.06;4993201;28;20053;-76
2021/12/30 02:53:22;;;;;;;2.70;2.42;;;;;;;6.73;83.09;100252.94;4993530;28;20089;-77
2021/12/30 02:55:49;;;;;;;2.88;2.28;;;;;;;6.75;83.37;100261.69;4991894;28;20033;-76
2021/12/30 02:58:15;;;;;;;2.40;2.20;;;;;;;6.53;83.16;100267.69;4992901;28;20432;-76
2021/12/30 03:00:42;;;;;;;2.97;2.28;;;;;;;6.50;83.09;100260.75;4981318;28;20033;-76
2021/12/30 03:03:19;;;;;;;3.05;2.10;;;;;;;6.54;82.88;100272.91;4973708;28;20118;-76
2021/12/30 03:05:45;;;;;;;2.95;2.47;;;;;;;6.56;83.01;100268.34;4973820;28;20069;-76
2021/12/30 03:08:11;;;;;;;3.17;2.63;;;;;;;6.61;84.19;100270.66;4973231;28;20021;-76
2021/12/30 03:10:36;;;;;;;3.63;2.72;;;;;;;6.60;85.09;100274.31;4991073;28;20022;-76
2021/12/30 03:13:09;;;;;;;2.92;2.45;;;;;;;6.68;84.90;100273.75;4992966;28;20527;-76
2021/12/30 03:15:35;;;;;;;3.17;2.70;;;;;;;6.66;84.99;100268.53;4992715;28;20365;-76
2021/12/30 03:18:01;;;;;;;3.38;2.70;;;;;;;6.54;84.90;100280.94;4975515;28;20031;-76
2021/12/30 03:20:27;;;;;;;2.80;2.60;;;;;;;6.69;85.01;100287.03;4993591;28;20030;-75
2021/12/30 03:22:52;;;;;;;3.55;2.75;;;;;;;6.67;84.68;100290.75;4992880;28;20027;-76
2021/12/30 03:25:18;;;;;;;3.28;2.50;;;;;;;6.57;83.52;100295.91;4992900;28;20026;-76
2021/12/30 03:27:44;;;;;;;3.22;2.53;;;;;;;6.50;82.67;100294.63;4993177;28;20050;-75
2021/12/30 03:30:15;;;;;;;2.75;2.40;;;;;;;6.55;82.87;100293.34;4992994;28;20026;-78
2021/12/30 03:32:41;;;;;;;4.45;2.97;;;;;;;6.61;83.14;100297.38;4976232;28;20030;-75
2021/12/30 03:35:07;;;;;;;3.30;2.83;;;;;;;6.53;82.70;100311.28;4992485;28;20109;-75
2021/12/30 03:37:33;;;;;;;4.45;2.67;;;;;;;6.52;82.87;100312.25;4992184;28;20031;-76
2021/12/30 03:40:00;;;;;;;4.32;3.75;;;;;;;6.65;83.15;100314.06;4992623;28;20061;-75
2021/12/30 03:42:25;;;;;;;3.50;2.85;;;;;;;6.58;83.57;100308.28;4992558;28;20026;-76
2021/12/30 03:44:56;;;;;;;4.75;3.40;;;;;;;6.61;83.30;100308.06;5004392;28;20097;-76
2021/12/30 03:47:22;;;;;;;5.00;3.70;;;;;;;6.72;83.12;100321.56;4997367;28;20472;-77
2021/12/30 03:49:48;;;;;;;4.93;3.10;;;;;;;6.75;83.70;100320.47;4980942;28;20570;-75
2021/12/30 03:52:19;;;;;;;4.28;3.42;;;;;;;6.82;84.25;100313.75;4973208;28;20106;-77
2021/12/30 03:54:45;;;;;;;9.68;4.25;;;;;;;6.84;84.61;100311.81;4972640;28;20031;-77
2021/12/30 03:57:11;;;;;;;6.88;4.00;;;;;;;6.82;84.46;100311.06;4972854;28;20030;-75
2021/12/30 03:59:36;;;;;;;4.93;2.92;;;;;;;6.73;83.67;100311.72;4975749;28;20031;-75
2021/12/30 04:02:02;;;;;;;4.10;3.38;;;;;;;6.77;82.84;100321.22;4976514;28;20105;-75
2021/12/30 04:04:27;;;;;;;4.13;3.42;;;;;;;6.81;82.89;100330.75;4976250;28;20085;-75
2021/12/30 04:06:53;;;;;;;5.07;3.75;;;;;;;6.78;83.27;100336.28;4975897;28;20122;-75
2021/12/30 04:09:18;;;;;;;4.32;3.35;;;;;;;6.73;83.62;100351.81;4984827;28;20022;-75
2021/12/30 04:11:44;;;;;;;5.07;3.83;;;;;;;6.64;83.73;100344.41;4995557;28;20045;-75
2021/12/30 04:14:09;;;;;;;5.47;4.50;;;;;;;6.68;83.94;100361.94;4995557;28;20034;-75
2021/12/30 04:16:36;;;;;;;5.00;3.13;;;;;;;6.74;83.95;100358.84;4995727;28;20026;-75
2021/12/30 04:19:02;;;;;;;5.75;3.75;;;;;;;6.76;84.06;100359.63;4995358;28;20041;-77
2021/12/30 04:21:28;;;;;;;5.80;3.50;;;;;;;6.74;84.30;100359.69;4995398;28;20378;-75
2021/12/30 04:23:53;;;;;;;3.70;3.25;;;;;;;6.86;84.79;100366.00;4995370;28;20033;-77
2021/12/30 04:26:19;;;;;;;5.30;3.63;;;;;;;6.86;84.79;100371.34;4995449;28;20026;-76
2021/12/30 04:28:45;;;;;;;6.07;4.70;;;;;;;6.78;84.49;100368.38;4990817;28;20047;-77
2021/12/30 04:31:11;;;;;;;6.03;4.07;;;;;;;6.84;84.43;100376.81;4975749;28;20056;-75
2021/12/30 04:33:37;;;;;;;4.32;3.60;;;;;;;6.89;84.32;100388.03;4975662;28;20042;-77
2021/12/30 04:36:03;;;;;;;5.13;3.83;;;;;;;6.90;84.58;100388.91;4979314;28;20026;-77
2021/12/30 04:38:30;;;;;;;11.70;6.70;;;;;;;6.90;84.58;100404.94;4995250;28;20041;-77
2021/12/30 04:40:57;;;;;;;7.40;4.50;;;;;;;6.90;84.49;100391.56;4995179;28;20038;-77
2021/12/30 04:43:23;;;;;;;3.65;2.92;;;;;;;6.76;83.95;100403.19;4995166;28;20085;-75
2021/12/30 04:45:48;;;;;;;4.20;3.20;;;;;;;6.78;83.47;100408.47;4995540;28;20042;-76
2021/12/30 04:48:15;;;;;;;5.10;3.50;;;;;;;6.86;83.76;100409.63;4995724;28;20057;-75
2021/12/30 04:50:41;;;;;;;4.38;3.40;;;;;;;6.82;83.76;100405.44;4994281;28;20030;-75
2021/12/30 04:53:07;;;;;;;7.22;2.83;;;;;;;6.82;83.28;100409.97;4995215;28;20385;-75
2021/12/30 04:55:32;;;;;;;3.50;2.70;;;;;;;6.84;83.28;100416.91;4996112;28;20037;-75
2021/12/30 04:57:58;;;;;;;4.38;2.60;;;;;;;6.89;83.69;100421.94;4994992;28;20034;-75
2021/12/30 05:00:23;;;;;;;4.68;3.58;;;;;;;6.90;83.63;100420.97;4995227;28;20081;-75
2021/12/30 05:05:23;;;;;;;4.82;3.63;;;;;;;6.99;83.23;100431.03;4994813;28;20076;-75
2021/12/30 05:07:49;;;;;;;5.15;3.17;;;;;;;7.02;84.26;100430.81;4994606;28;20054;-75
2021/12/30 05:10:15;;;;;;;4.20;3.25;;;;;;;7.01;84.29;100450.47;4993775;28;20113;-75
2021/12/30 05:12:40;;;;;;;6.85;3.15;;;;;;;7.04;84.42;100450.25;4994745;28;20058;-75
2021/12/30 05:15:06;;;;;;;5.80;3.22;;;;;;;6.95;84.11;100441.06;4994590;28;20374;-76
2021/12/30 05:17:31;;;;;;;3.90;3.50;;;;;;;6.98;84.21;100453.38;4994262;28;20120;-74
2021/12/30 05:19:57;;;;;;;9.60;4.22;;;;;;;7.04;85.01;100453.78;4994359;28;20033;-74
2021/12/30 05:22:22;;;;;;;5.75;4.55;;;;;;;7.04;84.65;100455.59;4996822;28;20030;-76
2021/12/30 05:24:48;;;;;;;6.45;4.10;;;;;;;7.10;84.64;100453.38;4999049;28;20026;-75
2021/12/30 05:27:13;;;;;;;7.82;5.30;;;;;;;7.09;84.76;100458.84;4994249;28;20037;-75
2021/12/30 05:29:39;;;;;;;5.20;3.88;;;;;;;7.18;85.38;100460.88;4982313;28;20027;-75
2021/12/30 05:32:04;;;;;;;9.30;5.82;;;;;;;7.24;85.32;100465.78;4974387;28;20161;-75
2021/12/30 05:34:30;;;;;;;6.90;4.93;;;;;;;7.20;85.37;100461.59;4974586;28;20061;-75
2021/12/30 05:36:55;;;;;;;7.05;4.45;;;;;;;7.27;85.47;100470.94;4974508;28;20049;-75
2021/12/30 05:39:21;;;;;;;15.95;6.18;;;;;;;7.18;85.94;100479.59;4974535;28;20423;-75
2021/12/30 05:41:46;;;;;;;7.60;5.50;;;;;;;7.25;85.94;100475.50;4974473;28;20031;-76
2021/12/30 05:44:12;;;;;;;8.15;4.95;;;;;;;7.26;85.55;100479.03;4974570;28;20089;-75
2021/12/30 05:46:37;;;;;;;5.35;3.70;;;;;;;7.20;85.21;100487.50;4974745;28;20109;-76
2021/12/30 05:49:03;;;;;;;7.55;5.15;;;;;;;7.12;85.42;100493.41;4975303;28;20109;-75
2021/12/30 05:51:29;;;;;;;8.00;5.38;;;;;;;7.07;85.41;100498.19;4974323;28;20539;-76
2021/12/30 05:53:54;;;;;;;10.23;5.85;;;;;;;7.10;85.30;100495.28;4956940;28;20030;-75
2021/12/30 05:56:20;;;;;;;9.63;5.50;;;;;;;7.04;85.62;100503.75;4974213;28;20030;-76
2021/12/30 05:58:45;;;;;;;10.40;6.70;;;;;;;7.05;85.76;100516.16;4976348;28;20477;-76
2021/12/30 06:01:11;;;;;;;11.90;7.25;;;;;;;7.06;86.33;100524.06;4993422;28;20441;-75
2021/12/30 06:03:36;;;;;;;11.75;6.43;;;;;;;7.08;86.16;100534.66;4993422;28;20065;-75
2021/12/30 06:06:02;;;;;;;14.70;8.30;;;;;;;7.11;86.26;100542.47;4993161;28;20460;-75
2021/12/30 06:08:27;;;;;;;13.88;9.02;;;;;;;7.00;85.00;100550.38;4993537;28;20026;-76
2021/12/30 06:10:52;;;;;;;18.65;9.55;;;;;;;6.94;84.80;100551.63;4993376;28;20113;-76
2021/12/30 06:13:19;;;;;;;16.30;9.55;;;;;;;6.87;85.24;100566.41;4993157;28;20033;-77
2021/12/30 06:15:44;;;;;;;13.25;8.70;;;;;;;6.78;85.13;100576.84;4991909;28;20061;-75
2021/12/30 06:18:10;;;;;;;16.85;11.15;;;;;;;6.68;85.02;100581.94;4993038;28;20062;-77
2021/12/30 06:20:35;;;;;;;12.35;7.40;;;;;;;6.68;85.11;100575.72;4992899;28;20026;-77
2021/12/30 06:23:01;;;;;;;12.18;7.35;;;;;;;6.69;85.57;100588.13;4991310;28;20038;-75
2021/12/30 06:25:26;;;;;;;10.32;6.97;;;;;;;6.58;85.77;100594.19;4993289;28;20396;-75
2021/12/30 06:27:52;;;;;;;13.52;8.43;;;;;;;6.50;85.64;100594.69;4993398;28;20026;-75
2021/12/30 06:30:18;;;;;;;15.23;8.63;;;;;;;6.53;86.09;100601.66;4988077;28;20034;-76
2021/12/30 06:32:43;;;;;;;11.68;7.40;;;;;;;6.53;86.21;100602.50;4992950;28;20030;-75
2021/12/30 06:35:09;;;;;;;12.00;7.55;;;;;;;6.50;86.36;100605.38;4992702;28;20026;-75
2021/12/30 06:37:37;;;;;;;13.65;7.82;;;;;;;6.46;85.91;100614.53;4975005;28;20429;-75
2021/12/30 06:40:08;;;;;;;12.93;8.13;;;;;;;6.49;86.25;100619.69;4985069;28;20118;-75
2021/12/30 06:42:33;;;;;;;14.05;6.88;;;;;;;6.37;85.78;100625.81;4992899;28;20173;-75
2021/12/30 06:44:59;;;;;;;11.65;8.02;;;;;;;6.33;85.98;100629.63;4992590;28;20038;-75
2021/12/30 06:47:24;;;;;;;26.85;12.82;;;;;;;6.41;86.68;100632.69;4992617;28;20030;-77
2021/12/30 06:49:51;;;;;;;18.02;12.02;;;;;;;6.35;86.95;100635.75;4992316;28;20057;-75
2021/12/30 06:52:16;;;;;;;20.42;11.82;;;;;;;6.33;87.34;100637.63;4992801;28;20077;-75
2021/12/30 06:54:42;;;;;;;14.35;9.23;;;;;;;6.34;87.32;100642.03;4993180;28;20030;-75
2021/12/30 06:57:12;;;;;;;15.00;8.50;;;;;;;6.35;87.92;100656.25;4993054;28;20064;-75
2021/12/30 06:59:37;;;;;;;14.27;7.18;;;;;;;6.37;88.26;100647.19;4992636;28;20035;-76
2021/12/30 07:02:06;;;;;;;19.58;8.77;;;;;;;6.40;88.46;100649.66;4983798;28;20097;-76
2021/12/30 07:04:32;;;;;;;16.13;10.32;;;;;;;6.40;88.30;100656.81;4973390;28;20031;-75
2021/12/30 07:06:58;;;;;;;18.13;11.82;;;;;;;6.46;88.59;100659.94;4973368;28;20031;-75
2021/12/30 07:09:23;;;;;;;19.27;12.55;;;;;;;6.53;88.59;100657.75;4974489;28;20030;-75
2021/12/30 07:11:50;;;;;;;19.70;11.80;;;;;;;6.63;88.90;100656.22;4974238;28;20038;-76
2021/12/30 07:14:17;;;;;;;19.63;10.85;;;;;;;6.72;88.86;100662.78;4973813;28;20108;-75
2021/12/30 07:16:43;;;;;;;13.77;9.32;;;;;;;6.71;88.50;100661.03;4973336;28;20030;-76
2021/12/30 07:19:08;;;;;;;11.75;9.32;;;;;;;6.67;88.42;100656.84;4979564;28;20026;-75
2021/12/30 07:21:34;;;;;;;15.00;8.95;;;;;;;6.78;88.30;100651.69;4992566;28;20092;-76
2021/12/30 07:23:59;;;;;;;14.13;9.13;;;;;;;6.77;88.51;100666.00;4982156;28;20034;-75
2021/12/30 07:26:24;;;;;;;20.55;9.70;;;;;;;6.73;88.59;100665.31;4992206;28;20026;-76
2021/12/30 07:28:50;;;;;;;18.27;10.52;;;;;;;6.86;88.28;100676.09;4983692;28;20027;-76
2021/12/30 07:31:15;;;;;;;14.73;10.75;;;;;;;6.82;88.19;100677.25;4975389;28;20038;-76
2021/12/30 07:33:41;;;;;;;13.55;9.88;;;;;;;6.86;87.90;100686.78;4978121;28;20030;-75
2021/12/30 07:36:06;;;;;;;18.77;11.88;;;;;;;6.78;87.64;100689.09;4978069;28;20022;-75
2021/12/30 07:38:32;;;;;;;13.40;9.07;;;;;;;6.82;87.55;100701.31;4991838;28;20038;-75
2021/12/30 07:40:57;;;;;;;21.55;11.52;;;;;;;6.79;87.63;100685.47;4996470;28;20113;-75
2021/12/30 07:43:22;;;;;;;15.48;10.73;;;;;;;6.82;87.77;100701.31;4996083;28;20065;-75
2021/12/30 07:45:48;;;;;;;15.60;10.18;;;;;;;6.81;87.84;100699.59;4992109;28;20037;-75
2021/12/30 07:48:14;;;;;;;17.00;10.57;;;;;;;6.89;87.80;100703.47;4963306;28;20069;-75
2021/12/30 07:50:39;;;;;;;18.92;9.75;;;;;;;6.91;87.54;100706.06;4990756;28;20030;-75
2021/12/30 07:53:04;;;;;;;17.65;10.35;;;;;;;6.97;87.98;100711.00;4988159;28;20022;-75
2021/12/30 07:55:30;;;;;;;16.08;10.05;;;;;;;7.03;87.62;100718.63;4994625;28;20030;-78
2021/12/30 07:57:57;;;;;;;17.83;10.00;;;;;;;7.10;87.42;100718.13;4996319;28;20104;-78
2021/12/30 08:00:24;;;;;;;13.52;9.77;;;;;;;7.14;87.29;100718.78;4989500;28;20047;-76
2021/12/30 08:02:49;;;;;;;15.00;9.07;;;;;;;7.15;87.42;100720.50;4981498;28;20117;-75
2021/12/30 08:05:17;;;;;;;18.30;8.60;;;;;;;7.21;86.99;100728.13;4982799;28;20460;-74
2021/12/30 08:07:46;;;;;;;16.92;10.48;;;;;;;7.24;86.17;100724.38;4975842;28;20491;-74
2021/12/30 08:10:14;;;;;;;40.03;24.10;;;;;;;7.25;86.44;100728.78;4976472;28;20033;-75
2021/12/30 08:12:42;;;;;;;28.67;18.73;;;;;;;7.29;86.24;100741.84;4992286;28;20105;-76
2021/12/30 08:15:07;;;;;;;31.67;18.70;;;;;;;7.35;86.75;100746.78;4995819;28;20121;-75
2021/12/30 08:17:36;;;;;;;20.85;11.02;;;;;;;7.45;86.84;100755.94;4995156;28;20057;-76
2021/12/30 08:20:06;;;;;;;20.35;11.90;;;;;;;7.35;86.25;100760.16;4994028;28;20448;-75
2021/12/30 08:22:32;;;;;;;22.90;12.02;;;;;;;7.34;86.10;100752.25;4994243;28;20057;-74
2021/12/30 08:24:57;;;;;;;19.90;12.13;;;;;;;7.31;86.39;100763.16;4994537;28;20619;-74
2021/12/30 08:27:23;;;;;;;30.48;17.08;;;;;;;7.28;85.65;100771.38;4995301;28;20033;-75
2021/12/30 08:29:49;;;;;;;23.92;12.45;;;;;;;7.28;85.66;100758.00;4995405;28;20064;-73
2021/12/30 08:32:16;;;;;;;20.63;10.93;;;;;;;7.20;85.12;100777.22;4994872;28;20400;-74
2021/12/30 08:34:44;;;;;;;20.00;11.57;;;;;;;7.22;85.36;100775.28;4994990;28;20034;-74
2021/12/30 08:37:11;;;;;;;32.63;15.95;;;;;;;7.25;85.94;100780.44;4995282;28;20022;-74
2021/12/30 08:39:37;;;;;;;21.42;12.98;;;;;;;7.28;86.86;100788.28;4996850;28;20465;-75
2021/12/30 08:42:04;;;;;;;21.90;11.20;;;;;;;7.20;87.10;100795.94;4995531;28;20109;-74
2021/12/30 08:44:30;;;;;;;21.58;12.93;;;;;;;7.17;86.57;100796.13;4994436;28;20034;-74
2021/12/30 08:46:55;;;;;;;20.92;12.32;;;;;;;7.11;86.74;100793.88;4994471;28;20034;-74
2021/12/30 08:49:23;;;;;;;24.75;12.75;;;;;;;7.06;86.25;100794.13;4994449;28;20547;-74
2021/12/30 08:51:49;;;;;;;33.83;14.15;;;;;;;7.15;86.49;100800.75;4995080;28;20037;-75
2021/12/30 08:54:15;;;;;;;23.27;14.38;;;;;;;7.27;86.86;100799.94;4994711;28;20333;-74
2021/12/30 08:56:40;;;;;;;22.05;13.20;;;;;;;7.28;87.01;100796.28;4994562;28;20041;-74
2021/12/30 08:59:06;;;;;;;22.80;13.55;;;;;;;7.23;87.03;100798.41;4994725;28;20133;-73
2021/12/30 09:01:31;;;;;;;20.85;12.82;;;;;;;7.34;86.75;100811.94;4994770;28;20030;-76
2021/12/30 09:03:57;;;;;;;27.10;11.45;;;;;;;7.42;87.27;100806.97;4994760;28;20033;-75
2021/12/30 09:06:22;;;;;;;22.77;11.70;;;;;;;7.45;88.16;100808.59;4994894;28;20026;-75
2021/12/30 09:08:48;;;;;;;17.48;11.27;;;;;;;7.42;87.90;100820.34;4994578;28;20030;-74
2021/12/30 09:11:13;;;;;;;23.40;12.82;;;;;;;7.47;87.04;100812.88;4994291;28;20038;-75
2021/12/30 09:13:39;;;;;;;18.45;11.80;;;;;;;7.55;86.95;100810.53;4994312;28;20051;-75
2021/12/30 09:16:05;;;;;;;17.58;12.30;;;;;;;7.63;86.53;100807.38;4994305;28;20096;-74
2021/12/30 09:18:30;;;;;;;27.58;15.27;;;;;;;7.67;86.41;100822.28;4976697;28;20109;-76
2021/12/30 09:20:56;;;;;;;30.00;18.13;;;;;;;7.65;85.79;100817.00;4994536;28;20047;-76
2021/12/30 09:23:22;;;;;;;38.70;17.65;;;;;;;7.72;86.27;100820.13;4993926;28;20026;-74
2021/12/30 09:25:47;;;;;;;30.90;18.13;;;;;;;7.78;86.55;100821.53;4993969;28;20022;-76
2021/12/30 09:28:14;;;;;;;33.70;19.35;;;;;;;7.85;86.89;100822.88;4993984;28;20061;-74
2021/12/30 09:30:41;;;;;;;31.40;17.70;;;;;;;7.82;86.34;100829.28;4993847;28;20041;-75
2021/12/30 09:33:08;;;;;;;29.42;21.30;;;;;;;7.78;86.74;100824.22;4994098;28;20500;-74
2021/12/30 09:35:34;;;;;;;30.85;19.23;;;;;;;7.74;86.21;100825.38;4994473;28;20053;-75
2021/12/30 09:37:59;;;;;;;27.30;16.42;;;;;;;7.77;86.48;100827.88;4993532;28;20508;-76
2021/12/30 09:40:27;;;;;;;29.27;16.73;;;;;;;7.73;86.38;100829.03;4976364;28;20026;-74
2021/12/30 09:43:01;;;;;;;27.27;17.83;;;;;;;7.78;86.40;100833.13;4993622;28;20030;-75
2021/12/30 09:45:28;;;;;;;30.40;19.08;;;;;;;7.84;86.64;100837.19;4977103;28;20388;-76
2021/12/30 09:47:56;;;;;;;55.33;26.08;;;;;;;7.75;86.27;100821.75;4993281;28;20065;-74
2021/12/30 09:50:25;;;;;;;71.40;38.92;;;;;;;7.81;85.59;100837.41;4993624;28;20034;-75
2021/12/30 09:52:51;;;;;;;54.88;30.27;;;;;;;7.74;85.72;100836.94;4994344;28;20022;-75
2021/12/30 09:55:17;;;;;;;43.38;24.77;;;;;;;7.66;84.61;100840.16;4993489;28;20117;-75
2021/12/30 09:57:43;;;;;;;28.38;18.10;;;;;;;7.66;84.12;100844.63;4993571;28;20034;-76
2021/12/30 10:00:12;;;;;;;31.13;17.92;;;;;;;7.73;84.44;100831.72;4993502;28;20400;-76
2021/12/30 10:02:41;;;;;;;26.50;15.32;;;;;;;7.72;85.29;100829.97;4993982;28;20034;-76
2021/12/30 10:05:12;;;;;;;18.90;12.43;;;;;;;7.62;85.19;100827.91;4993753;28;20157;-76
2021/12/30 10:07:41;;;;;;;24.90;13.90;;;;;;;7.57;85.72;100827.38;4994019;28;20527;-79
2021/12/30 10:10:25;;;;;;;23.48;14.23;;;;;;;7.61;85.77;100842.25;4993986;28;20069;-77
2021/12/30 10:12:50;;;;;;;22.33;12.98;;;;;;;7.48;85.97;100822.63;4995109;28;20034;-77
2021/12/30 10:15:16;;;;;;;29.42;15.18;;;;;;;7.54;85.95;100830.25;4994590;28;20543;-75
2021/12/30 10:17:41;;;;;;;27.40;16.40;;;;;;;7.46;85.72;100827.19;4995611;28;20045;-76
2021/12/30 10:20:18;;;;;;;35.05;16.63;;;;;;;7.44;85.61;100834.47;4995352;28;20110;-76
2021/12/30 10:22:46;;;;;;;28.25;17.35;;;;;;;7.49;86.46;100831.53;4995584;28;20032;-76
2021/12/30 10:25:35;;;;;;;36.85;19.80;;;;;;;7.46;86.18;100843.25;4995283;28;20034;-77
2021/12/30 10:28:24;;;;;;;34.70;19.65;;;;;;;7.40;85.82;100838.31;4994978;28;20498;-76
2021/12/30 10:30:54;;;;;;;35.78;19.63;;;;;;;7.40;85.57;100848.16;4993452;28;20065;-76
2021/12/30 10:33:30;;;;;;;98.97;35.35;;;;;;;7.29;85.84;100853.34;4994035;28;20033;-77
2021/12/30 10:35:56;;;;;;;245.40;58.75;;;;;;;7.18;85.65;100859.38;4993771;28;20054;-75
2021/12/30 10:38:22;;;;;;;115.53;34.17;;;;;;;7.13;86.41;100853.44;4992773;28;20034;-76
2021/12/30 10:40:52;;;;;;;94.90;33.38;;;;;;;7.22;86.42;100868.91;4993322;28;20126;-76
2021/12/30 10:43:33;;;;;;;121.90;36.17;;;;;;;7.29;87.79;100864.91;4993123;28;20045;-76
2021/12/30 10:46:17;;;;;;;38.22;22.60;;;;;;;7.29;88.12;100850.66;4993184;28;20036;-77
2021/12/30 10:48:56;;;;;;;36.47;20.98;;;;;;;7.28;88.37;100855.16;4992862;28;20054;-77
2021/12/30 10:51:28;;;;;;;41.03;24.10;;;;;;;7.29;88.66;100856.88;4993337;28;20403;-76
2021/12/30 10:53:54;;;;;;;41.58;23.05;;;;;;;7.37;89.17;100857.22;4992823;28;20030;-76
2021/12/30 10:56:30;;;;;;;42.50;22.50;;;;;;;7.41;89.74;100871.28;4993200;28;20038;-76
2021/12/30 10:59:17;;;;;;;44.30;25.33;;;;;;;7.36;89.77;100874.25;4993165;28;20026;-77
2021/12/30 11:01:54;;;;;;;39.40;24.50;;;;;;;7.38;89.49;100872.34;4993152;28;20595;-76
2021/12/30 11:04:21;;;;;;;28.27;18.05;;;;;;;7.35;89.68;100872.53;4975457;28;20035;-76
2021/12/30 11:06:47;;;;;;;30.40;19.90;;;;;;;7.35;89.60;100867.19;4993148;28;20049;-76
2021/12/30 11:09:20;;;;;;;35.92;21.38;;;;;;;7.43;89.21;100875.56;5001030;28;20027;-76
2021/12/30 11:11:51;;;;;;;32.42;22.98;;;;;;;7.42;89.79;100868.50;4997639;28;20054;-75
2021/12/30 11:14:22;;;;;;;42.20;24.55;;;;;;;7.58;90.64;100876.41;4996871;28;20120;-76
2021/12/30 11:17:18;;;;;;;47.13;27.77;;;;;;;7.61;90.86;100885.06;4996770;28;20060;-77
2021/12/30 11:19:59;;;;;;;55.47;28.63;;;;;;;7.58;90.43;100895.97;4977396;28;20169;-77
2021/12/30 11:22:29;;;;;;;82.13;39.75;;;;;;;7.64;90.31;100892.91;4996466;28;20032;-76
2021/12/30 11:24:57;;;;;;;51.25;32.72;;;;;;;7.74;90.55;100901.19;4996372;28;20093;-75
2021/12/30 11:27:24;;;;;;;70.45;33.55;;;;;;;7.72;90.36;100897.78;4996311;28;20113;-77
2021/12/30 11:29:52;;;;;;;46.80;28.33;;;;;;;7.76;90.09;100898.44;4996488;28;20057;-76
2021/12/30 11:32:21;;;;;;;40.50;23.30;;;;;;;7.72;89.79;100899.59;4979140;28;20034;-76